Terminal Aerodrome Forecast
Issued by NWS

Home | Current Version | Previous Version | Text Only | Print | Product List | Glossary On
Versions: 1 2 3 4 5 6 7 8 9 10 11 12 13 14 15 16
000
FTUS44 KLIX 011700
TAFMCB
TAF
KMCB 011740Z 0118/0218 16007KT P6SM OVC006
     FM020300 15005KT 2SM BR OVC005
     FM020600 16005KT 1/2SM FG OVC003
     FM021100 00000KT 1/2SM FG OVC003
     FM021500 VRB03KT P6SM OVC003=

USA.gov is the U.S. government's official web portal to all federal, state and local government web resources and services.